Ever Develop — 3FLF8 — position and weather

sailwx.info

Track history (hours):
 
Tides and Currents Weather Stations Pressure Air Temp Water Temp Dewpoint Dewpoint Depression Visibility Wind Speed Wind Dir Waves Ship Positions

Ever Develop

Last reported at 2014-Oct-07 07:17 UTC. Time now 2014-Oct-31 14:20 UTC.
Position N 30°16' E 123°05'.
Warning: this ship's position is 24 days out of date.

Type: Ship (hazmat cat D). MMSI: 356391000.

Date/timePositionNaut miles runAvg speedWind from/ knotsBaromVisibWave heightAir tempDewpointWater temp
2014-Oct-07 07:17N 30°16' E 123°05'1317.8
2014-Oct-07 06:33N 30°23' E 122°52'1919.0
2014-Oct-07 05:34N 30°30' E 122°32'1716.7
2014-Oct-07 04:33N 30°33' E 122°13'4 0.3
2014-Oct-06 17:19N 30°35' E 122°09'810.4
2014-Oct-06 16:33N 30°33' E 122°18'1212.1
2014-Oct-06 15:33N 30°31' E 122°32'1312.9
2014-Oct-06 14:33N 30°24' E 122°44'0 0.4
2014-Oct-06 13:31N 30°24' E 122°44'0 0.1
2014-Oct-06 10:31N 30°24' E 122°44'0 0.0
2014-Oct-06 03:25N 30°24' E 122°44'0 0.1
2014-Oct-05 22:13N 30°24' E 122°44'0 0.1
2014-Oct-05 21:13N 30°24' E 122°44'0 0.1
2014-Oct-05 20:13N 30°24' E 122°44'1 0.3
2014-Oct-05 18:13N 30°25' E 122°44'3 5.1
2014-Oct-05 17:33N 30°23' E 122°47'1411.7
2014-Oct-05 16:19N 30°17' E 123°02'1810.3
2014-Oct-05 14:32N 29°59' E 122°56'1212.6
2014-Oct-05 13:33N 29°50' E 122°46'1211.9
2014-Oct-05 12:33N 29°46' E 122°33'1313.0
2014-Oct-05 11:33N 29°45' E 122°18'1211.6
2014-Oct-05 10:33N 29°54' E 122°10'6 6.2
2014-Oct-05 09:33N 29°53' E 122°03'0 0.0
2014-Oct-05 08:25N 29°53' E 122°03'0 0.0
2014-Oct-05 07:31N 29°53' E 122°03'0 0.0
2014-Oct-05 06:31N 29°53' E 122°03'0 0.0
2014-Oct-05 05:31N 29°53' E 122°03'0 0.0
2014-Oct-05 03:25N 29°53' E 122°03'0 0.0
2014-Oct-05 01:19N 29°53' E 122°03'0 0.0
2014-Oct-05 00:31N 29°53' E 122°03'0 0.0
2014-Oct-04 23:31N 29°53' E 122°03'0 0.0
2014-Oct-04 20:13N 29°53' E 122°03'0 0.0
2014-Oct-04 19:13N 29°53' E 122°03'0 0.0
2014-Oct-04 17:28N 29°53' E 122°03'0 0.0
2014-Oct-04 16:31N 29°53' E 122°03'2 2.2
2014-Oct-04 15:33N 29°55' E 122°05'8 8.5
2014-Oct-04 14:33N 29°50' E 122°13'1010.0
2014-Oct-04 13:31N 29°44' E 122°22'9 9.3
2014-Oct-04 12:32N 29°40' E 122°32'1412.7
2014-Oct-04 11:24N 29°26' E 122°32'1314.8
2014-Oct-04 10:33N 29°13' E 122°32'32910.5
2014-Oct-03 03:10N 24°28' E 119°27'30713.5
2014-Oct-02 04:22N 22°34' E 114°16'0 0.0
2014-Oct-02 03:31N 22°34' E 114°16'0 0.0
2014-Oct-02 02:24N 22°34' E 114°16'0 0.1
2014-Oct-02 01:30N 22°34' E 114°16'0 0.0
2014-Oct-02 00:18N 22°34' E 114°16'0 0.0
2014-Oct-01 23:24N 22°34' E 114°16'0 0.0
2014-Oct-01 22:30N 22°34' E 114°16'0 0.0
2014-Oct-01 21:18N 22°34' E 114°16'0 0.0
2014-Oct-01 20:12N 22°34' E 114°16'20 3.2
2014-Oct-01 14:11N 22°17' E 114°06'3 4.6
2014-Oct-01 13:32N 22°20' E 114°08'0 0.0
2014-Oct-01 05:15N 22°20' E 114°08'0 0.0
2014-Oct-01 04:11N 22°20' E 114°08'3 4.9
2014-Oct-01 03:32N 22°17' E 114°06'9 9.1
2014-Oct-01 02:33N 22°10' E 114°13'25717.8
2014-Sep-30 12:08N 22°27' E 118°49'1418.5
2014-Sep-30 11:22N 22°28' E 119°05'1518.5
2014-Sep-30 10:33N 22°30' E 119°21'1818.0
2014-Sep-30 09:33N 22°31' E 119°40'1818.3
2014-Sep-30 08:33N 22°32' E 120°00'1716.2
2014-Sep-30 07:32N 22°33' E 120°18'2 0.6
2014-Sep-30 04:30N 22°33' E 120°20'0 0.0
2014-Sep-30 03:30N 22°33' E 120°20'0 0.0
2014-Sep-30 02:30N 22°33' E 120°20'0 0.0
2014-Sep-30 00:12N 22°33' E 120°20'0 0.0
2014-Sep-29 23:30N 22°33' E 120°20'0 0.0
2014-Sep-29 22:30N 22°33' E 120°20'0 0.0
2014-Sep-29 21:33N 22°33' E 120°20'0 0.0
2014-Sep-29 20:33N 22°33' E 120°20'0 0.0
2014-Sep-29 19:33N 22°33' E 120°20'0 0.0
2014-Sep-29 18:33N 22°33' E 120°20'0 0.0
2014-Sep-29 17:33N 22°33' E 120°20'0 0.0
2014-Sep-29 16:33N 22°33' E 120°20'3 2.6
2014-Sep-29 15:33N 22°33' E 120°17'2 2.5
2014-Sep-29 14:33N 22°32' E 120°15'0 0.2
2014-Sep-29 13:32N 22°31' E 120°15'0 0.0
2014-Sep-29 12:26N 22°31' E 120°15'0 0.0
2014-Sep-29 11:32N 22°31' E 120°15'0 0.1
2014-Sep-29 10:32N 22°31' E 120°15'0 0.1
2014-Sep-29 09:32N 22°31' E 120°15'0 0.1
2014-Sep-29 08:26N 22°31' E 120°15'0 0.0
2014-Sep-29 07:32N 22°31' E 120°15'0 0.0
2014-Sep-29 06:32N 22°31' E 120°15'0 0.0
2014-Sep-29 05:32N 22°31' E 120°15'0 0.0
2014-Sep-29 01:08N 22°31' E 120°15'0 0.0
2014-Sep-29 00:20N 22°31' E 120°15'0 0.0
2014-Sep-28 23:26N 22°31' E 120°15'0 0.0
2014-Sep-28 22:32N 22°31' E 120°15'0 0.1
2014-Sep-28 21:32N 22°31' E 120°15'0 0.1
2014-Sep-28 20:32N 22°32' E 120°15'0 0.1
2014-Sep-28 19:32N 22°32' E 120°15'0 0.0
2014-Sep-28 18:14N 22°32' E 120°15'0 0.0
2014-Sep-28 17:32N 22°32' E 120°15'0 0.0
2014-Sep-28 16:32N 22°32' E 120°15'0 0.1
2014-Sep-28 15:32N 22°31' E 120°15'0 0.2
2014-Sep-28 14:32N 22°31' E 120°15'0 0.0
2014-Sep-28 13:32N 22°31' E 120°15'0 0.0
2014-Sep-28 12:32N 22°31' E 120°15'0 0.1
2014-Sep-28 11:32N 22°31' E 120°15'0 0.0
2014-Sep-28 10:32N 22°31' E 120°15'0 0.0
2014-Sep-28 09:32N 22°31' E 120°15'0 0.0
2014-Sep-28 08:32N 22°31' E 120°15'0 0.1
2014-Sep-28 07:32N 22°31' E 120°15'0 0.1
2014-Sep-28 06:33N 22°31' E 120°15'9 8.7
2014-Sep-28 05:33N 22°23' E 120°13'1413.3
2014-Sep-28 04:32N 22°10' E 120°19'  
Track history (hours):
 
Tides and Currents Weather Stations Pressure Air Temp Water Temp Dewpoint Dewpoint Depression Visibility Wind Speed Wind Dir Waves Ship Positions

Ever Develop

Last reported at 2014-Oct-07 07:17 UTC. Time now 2014-Oct-31 14:20 UTC.
Position N 30°16' E 123°05'.
Warning: this ship's position is 24 days out of date.

Type: Ship (hazmat cat D). MMSI: 356391000.

Date/timePositionNaut miles runAvg speedWind from/ knotsBaromVisibWave heightAir tempDewpointWater temp
2014-Oct-07 07:17N 30°16' E 123°05'1317.8
2014-Oct-07 06:33N 30°23' E 122°52'1919.0
2014-Oct-07 05:34N 30°30' E 122°32'1716.7
2014-Oct-07 04:33N 30°33' E 122°13'4 0.3
2014-Oct-06 17:19N 30°35' E 122°09'810.4
2014-Oct-06 16:33N 30°33' E 122°18'1212.1
2014-Oct-06 15:33N 30°31' E 122°32'1312.9
2014-Oct-06 14:33N 30°24' E 122°44'0 0.4
2014-Oct-06 13:31N 30°24' E 122°44'0 0.1
2014-Oct-06 10:31N 30°24' E 122°44'0 0.0
2014-Oct-06 03:25N 30°24' E 122°44'0 0.1
2014-Oct-05 22:13N 30°24' E 122°44'0 0.1
2014-Oct-05 21:13N 30°24' E 122°44'0 0.1
2014-Oct-05 20:13N 30°24' E 122°44'1 0.3
2014-Oct-05 18:13N 30°25' E 122°44'3 5.1
2014-Oct-05 17:33N 30°23' E 122°47'1411.7
2014-Oct-05 16:19N 30°17' E 123°02'1810.3
2014-Oct-05 14:32N 29°59' E 122°56'1212.6
2014-Oct-05 13:33N 29°50' E 122°46'1211.9
2014-Oct-05 12:33N 29°46' E 122°33'1313.0
2014-Oct-05 11:33N 29°45' E 122°18'1211.6
2014-Oct-05 10:33N 29°54' E 122°10'6 6.2
2014-Oct-05 09:33N 29°53' E 122°03'0 0.0
2014-Oct-05 08:25N 29°53' E 122°03'0 0.0
2014-Oct-05 07:31N 29°53' E 122°03'0 0.0
2014-Oct-05 06:31N 29°53' E 122°03'0 0.0
2014-Oct-05 05:31N 29°53' E 122°03'0 0.0
2014-Oct-05 03:25N 29°53' E 122°03'0 0.0
2014-Oct-05 01:19N 29°53' E 122°03'0 0.0
2014-Oct-05 00:31N 29°53' E 122°03'0 0.0
2014-Oct-04 23:31N 29°53' E 122°03'0 0.0
2014-Oct-04 20:13N 29°53' E 122°03'0 0.0
2014-Oct-04 19:13N 29°53' E 122°03'0 0.0
2014-Oct-04 17:28N 29°53' E 122°03'0 0.0
2014-Oct-04 16:31N 29°53' E 122°03'2 2.2
2014-Oct-04 15:33N 29°55' E 122°05'8 8.5
2014-Oct-04 14:33N 29°50' E 122°13'1010.0
2014-Oct-04 13:31N 29°44' E 122°22'9 9.3
2014-Oct-04 12:32N 29°40' E 122°32'1412.7
2014-Oct-04 11:24N 29°26' E 122°32'1314.8
2014-Oct-04 10:33N 29°13' E 122°32'32910.5
2014-Oct-03 03:10N 24°28' E 119°27'30713.5
2014-Oct-02 04:22N 22°34' E 114°16'0 0.0
2014-Oct-02 03:31N 22°34' E 114°16'0 0.0
2014-Oct-02 02:24N 22°34' E 114°16'0 0.1
2014-Oct-02 01:30N 22°34' E 114°16'0 0.0
2014-Oct-02 00:18N 22°34' E 114°16'0 0.0
2014-Oct-01 23:24N 22°34' E 114°16'0 0.0
2014-Oct-01 22:30N 22°34' E 114°16'0 0.0
2014-Oct-01 21:18N 22°34' E 114°16'0 0.0
2014-Oct-01 20:12N 22°34' E 114°16'20 3.2
2014-Oct-01 14:11N 22°17' E 114°06'3 4.6
2014-Oct-01 13:32N 22°20' E 114°08'0 0.0
2014-Oct-01 05:15N 22°20' E 114°08'0 0.0
2014-Oct-01 04:11N 22°20' E 114°08'3 4.9
2014-Oct-01 03:32N 22°17' E 114°06'9 9.1
2014-Oct-01 02:33N 22°10' E 114°13'25717.8
2014-Sep-30 12:08N 22°27' E 118°49'1418.5
2014-Sep-30 11:22N 22°28' E 119°05'1518.5
2014-Sep-30 10:33N 22°30' E 119°21'1818.0
2014-Sep-30 09:33N 22°31' E 119°40'1818.3
2014-Sep-30 08:33N 22°32' E 120°00'1716.2
2014-Sep-30 07:32N 22°33' E 120°18'2 0.6
2014-Sep-30 04:30N 22°33' E 120°20'0 0.0
2014-Sep-30 03:30N 22°33' E 120°20'0 0.0
2014-Sep-30 02:30N 22°33' E 120°20'0 0.0
2014-Sep-30 00:12N 22°33' E 120°20'0 0.0
2014-Sep-29 23:30N 22°33' E 120°20'0 0.0
2014-Sep-29 22:30N 22°33' E 120°20'0 0.0
2014-Sep-29 21:33N 22°33' E 120°20'0 0.0
2014-Sep-29 20:33N 22°33' E 120°20'0 0.0
2014-Sep-29 19:33N 22°33' E 120°20'0 0.0
2014-Sep-29 18:33N 22°33' E 120°20'0 0.0
2014-Sep-29 17:33N 22°33' E 120°20'0 0.0
2014-Sep-29 16:33N 22°33' E 120°20'3 2.6
2014-Sep-29 15:33N 22°33' E 120°17'2 2.5
2014-Sep-29 14:33N 22°32' E 120°15'0 0.2
2014-Sep-29 13:32N 22°31' E 120°15'0 0.0
2014-Sep-29 12:26N 22°31' E 120°15'0 0.0
2014-Sep-29 11:32N 22°31' E 120°15'0 0.1
2014-Sep-29 10:32N 22°31' E 120°15'0 0.1
2014-Sep-29 09:32N 22°31' E 120°15'0 0.1
2014-Sep-29 08:26N 22°31' E 120°15'0 0.0
2014-Sep-29 07:32N 22°31' E 120°15'0 0.0
2014-Sep-29 06:32N 22°31' E 120°15'0 0.0
2014-Sep-29 05:32N 22°31' E 120°15'0 0.0
2014-Sep-29 01:08N 22°31' E 120°15'0 0.0
2014-Sep-29 00:20N 22°31' E 120°15'0 0.0
2014-Sep-28 23:26N 22°31' E 120°15'0 0.0
2014-Sep-28 22:32N 22°31' E 120°15'0 0.1
2014-Sep-28 21:32N 22°31' E 120°15'0 0.1
2014-Sep-28 20:32N 22°32' E 120°15'0 0.1
2014-Sep-28 19:32N 22°32' E 120°15'0 0.0
2014-Sep-28 18:14N 22°32' E 120°15'0 0.0
2014-Sep-28 17:32N 22°32' E 120°15'0 0.0
2014-Sep-28 16:32N 22°32' E 120°15'0 0.1
2014-Sep-28 15:32N 22°31' E 120°15'0 0.2
2014-Sep-28 14:32N 22°31' E 120°15'0 0.0
2014-Sep-28 13:32N 22°31' E 120°15'0 0.0
2014-Sep-28 12:32N 22°31' E 120°15'0 0.1
2014-Sep-28 11:32N 22°31' E 120°15'0 0.0
2014-Sep-28 10:32N 22°31' E 120°15'0 0.0
2014-Sep-28 09:32N 22°31' E 120°15'0 0.0
2014-Sep-28 08:32N 22°31' E 120°15'0 0.1
2014-Sep-28 07:32N 22°31' E 120°15'0 0.1
2014-Sep-28 06:33N 22°31' E 120°15'9 8.7
2014-Sep-28 05:33N 22°23' E 120°13'1413.3
2014-Sep-28 04:32N 22°10' E 120°19'  

Dump ship's entire track history